sensor_id;sensor_type;location;lat;lon;timestamp;temperature;humidity
5334;DHT22;2689;50.954;7.116;2023-04-01T00:01:24;10.40;99.90
5334;DHT22;2689;50.954;7.116;2023-04-01T00:03:51;10.40;99.90
5334;DHT22;2689;50.954;7.116;2023-04-01T00:06:19;10.40;99.90
5334;DHT22;2689;50.954;7.116;2023-04-01T00:08:46;10.50;99.90
5334;DHT22;2689;50.954;7.116;2023-04-01T00:11:13;10.50;99.90
5334;DHT22;2689;50.954;7.116;2023-04-01T00:13:41;10.60;99.90
5334;DHT22;2689;50.954;7.116;2023-04-01T00:16:08;10.60;99.90
5334;DHT22;2689;50.954;7.116;2023-04-01T00:18:36;10.60;99.90
5334;DHT22;2689;50.954;7.116;2023-04-01T00:21:03;10.70;99.90
5334;DHT22;2689;50.954;7.116;2023-04-01T00:23:30;10.70;99.90
5334;DHT22;2689;50.954;7.116;2023-04-01T00:25:59;10.70;99.90
5334;DHT22;2689;50.954;7.116;2023-04-01T00:28:26;10.80;99.90
5334;DHT22;2689;50.954;7.116;2023-04-01T00:30:53;10.70;99.90
5334;DHT22;2689;50.954;7.116;2023-04-01T00:33:20;10.70;99.90
5334;DHT22;2689;50.954;7.116;2023-04-01T00:35:48;10.90;99.90
5334;DHT22;2689;50.954;7.116;2023-04-01T00:38:14;10.90;99.90
5334;DHT22;2689;50.954;7.116;2023-04-01T00:40:44;11.00;99.90
5334;DHT22;2689;50.954;7.116;2023-04-01T00:43:12;11.10;99.90
5334;DHT22;2689;50.954;7.116;2023-04-01T00:45:41;11.10;99.90
5334;DHT22;2689;50.954;7.116;2023-04-01T00:48:11;11.20;99.90
5334;DHT22;2689;50.954;7.116;2023-04-01T00:50:42;11.30;99.90
5334;DHT22;2689;50.954;7.116;2023-04-01T00:53:11;11.40;99.90
5334;DHT22;2689;50.954;7.116;2023-04-01T00:55:42;11.40;99.90
5334;DHT22;2689;50.954;7.116;2023-04-01T00:58:15;11.40;99.90
5334;DHT22;2689;50.954;7.116;2023-04-01T01:00:43;11.30;99.90
5334;DHT22;2689;50.954;7.116;2023-04-01T01:03:11;11.30;99.90
5334;DHT22;2689;50.954;7.116;2023-04-01T01:05:52;11.20;99.90
5334;DHT22;2689;50.954;7.116;2023-04-01T01:08:30;11.20;99.90
5334;DHT22;2689;50.954;7.116;2023-04-01T01:11:04;11.20;99.90
5334;DHT22;2689;50.954;7.116;2023-04-01T01:13:36;11.20;99.90
5334;DHT22;2689;50.954;7.116;2023-04-01T01:16:15;11.20;99.90
5334;DHT22;2689;50.954;7.116;2023-04-01T01:18:49;11.30;99.90
5334;DHT22;2689;50.954;7.116;2023-04-01T01:21:32;11.30;99.90
5334;DHT22;2689;50.954;7.116;2023-04-01T01:24:16;11.40;99.90
5334;DHT22;2689;50.954;7.116;2023-04-01T01:26:51;11.50;99.90
5334;DHT22;2689;50.954;7.116;2023-04-01T01:29:46;11.40;99.90
5334;DHT22;2689;50.954;7.116;2023-04-01T01:35:38;11.50;99.90
5334;DHT22;2689;50.954;7.116;2023-04-01T01:38:09;11.50;99.90
5334;DHT22;2689;50.954;7.116;2023-04-01T01:40:40;11.50;99.90
5334;DHT22;2689;50.954;7.116;2023-04-01T01:43:12;11.50;99.90
5334;DHT22;2689;50.954;7.116;2023-04-01T01:45:44;11.50;99.90
5334;DHT22;2689;50.954;7.116;2023-04-01T01:48:12;11.50;99.90
5334;DHT22;2689;50.954;7.116;2023-04-01T01:50:43;11.50;99.90
5334;DHT22;2689;50.954;7.116;2023-04-01T01:53:12;11.50;99.90
5334;DHT22;2689;50.954;7.116;2023-04-01T01:55:41;11.40;99.90
5334;DHT22;2689;50.954;7.116;2023-04-01T01:58:13;11.30;99.90
5334;DHT22;2689;50.954;7.116;2023-04-01T02:00:44;11.30;99.90
5334;DHT22;2689;50.954;7.116;2023-04-01T02:03:13;11.30;99.90
5334;DHT22;2689;50.954;7.116;2023-04-01T02:05:42;11.20;99.90
5334;DHT22;2689;50.954;7.116;2023-04-01T02:08:13;11.10;99.90
5334;DHT22;2689;50.954;7.116;2023-04-01T02:10:45;11.20;99.90
5334;DHT22;2689;50.954;7.116;2023-04-01T02:13:17;11.00;99.90
5334;DHT22;2689;50.954;7.116;2023-04-01T02:15:47;10.90;99.90
5334;DHT22;2689;50.954;7.116;2023-04-01T02:18:15;10.80;99.90
5334;DHT22;2689;50.954;7.116;2023-04-01T02:20:46;10.80;99.90
5334;DHT22;2689;50.954;7.116;2023-04-01T02:23:13;10.70;99.90
5334;DHT22;2689;50.954;7.116;2023-04-01T02:25:41;10.60;99.90
5334;DHT22;2689;50.954;7.116;2023-04-01T02:28:10;10.50;99.90
5334;DHT22;2689;50.954;7.116;2023-04-01T02:30:41;10.60;99.90
5334;DHT22;2689;50.954;7.116;2023-04-01T02:33:08;10.40;99.90
5334;DHT22;2689;50.954;7.116;2023-04-01T02:35:36;10.30;99.90
5334;DHT22;2689;50.954;7.116;2023-04-01T02:38:05;10.20;99.90
5334;DHT22;2689;50.954;7.116;2023-04-01T02:40:45;10.10;99.90
5334;DHT22;2689;50.954;7.116;2023-04-01T02:43:12;10.00;99.90
5334;DHT22;2689;50.954;7.116;2023-04-01T02:45:39;9.90;99.90
5334;DHT22;2689;50.954;7.116;2023-04-01T02:48:06;10.10;99.90
5334;DHT22;2689;50.954;7.116;2023-04-01T02:50:33;9.80;99.90
5334;DHT22;2689;50.954;7.116;2023-04-01T02:53:00;9.70;99.90
5334;DHT22;2689;50.954;7.116;2023-04-01T02:55:29;9.60;99.90
5334;DHT22;2689;50.954;7.116;2023-04-01T02:57:56;9.60;99.90
5334;DHT22;2689;50.954;7.116;2023-04-01T03:00:23;9.50;99.90
5334;DHT22;2689;50.954;7.116;2023-04-01T03:02:50;9.50;99.90
5334;DHT22;2689;50.954;7.116;2023-04-01T03:05:17;9.60;99.90
5334;DHT22;2689;50.954;7.116;2023-04-01T03:07:44;9.50;99.90
5334;DHT22;2689;50.954;7.116;2023-04-01T03:10:10;9.50;99.90
5334;DHT22;2689;50.954;7.116;2023-04-01T03:12:39;9.40;99.90
5334;DHT22;2689;50.954;7.116;2023-04-01T03:15:06;9.40;99.90
5334;DHT22;2689;50.954;7.116;2023-04-01T03:17:33;9.40;99.90
5334;DHT22;2689;50.954;7.116;2023-04-01T03:20:00;9.40;99.90
5334;DHT22;2689;50.954;7.116;2023-04-01T03:22:30;9.30;99.90
5334;DHT22;2689;50.954;7.116;2023-04-01T03:24:57;9.30;99.90
5334;DHT22;2689;50.954;7.116;2023-04-01T03:27:23;9.40;99.90
5334;DHT22;2689;50.954;7.116;2023-04-01T03:29:51;9.30;99.90
5334;DHT22;2689;50.954;7.116;2023-04-01T03:32:18;9.30;99.90
5334;DHT22;2689;50.954;7.116;2023-04-01T03:34:45;9.30;99.90
5334;DHT22;2689;50.954;7.116;2023-04-01T03:37:12;9.30;99.90
5334;DHT22;2689;50.954;7.116;2023-04-01T03:39:39;9.30;99.90
5334;DHT22;2689;50.954;7.116;2023-04-01T03:42:06;9.30;99.90
5334;DHT22;2689;50.954;7.116;2023-04-01T03:44:33;9.30;99.90
5334;DHT22;2689;50.954;7.116;2023-04-01T03:47:01;9.30;99.90
5334;DHT22;2689;50.954;7.116;2023-04-01T03:49:28;9.40;99.90
5334;DHT22;2689;50.954;7.116;2023-04-01T03:51:55;9.30;99.90
5334;DHT22;2689;50.954;7.116;2023-04-01T03:54:21;9.30;99.90
5334;DHT22;2689;50.954;7.116;2023-04-01T03:56:48;9.40;99.90
5334;DHT22;2689;50.954;7.116;2023-04-01T03:59:15;9.40;99.90
5334;DHT22;2689;50.954;7.116;2023-04-01T04:01:42;9.40;99.90
5334;DHT22;2689;50.954;7.116;2023-04-01T04:04:12;9.40;99.90
5334;DHT22;2689;50.954;7.116;2023-04-01T04:06:40;9.40;99.90
5334;DHT22;2689;50.954;7.116;2023-04-01T04:09:07;9.40;99.90
5334;DHT22;2689;50.954;7.116;2023-04-01T04:11:33;9.40;99.90
5334;DHT22;2689;50.954;7.116;2023-04-01T04:14:00;9.40;99.90
5334;DHT22;2689;50.954;7.116;2023-04-01T04:16:27;9.40;99.90
5334;DHT22;2689;50.954;7.116;2023-04-01T04:18:54;9.40;99.90
5334;DHT22;2689;50.954;7.116;2023-04-01T04:21:22;9.40;99.90
5334;DHT22;2689;50.954;7.116;2023-04-01T04:23:49;9.40;99.90
5334;DHT22;2689;50.954;7.116;2023-04-01T04:26:16;9.40;99.90
5334;DHT22;2689;50.954;7.116;2023-04-01T04:28:42;9.40;99.90
5334;DHT22;2689;50.954;7.116;2023-04-01T04:31:09;9.40;99.90
5334;DHT22;2689;50.954;7.116;2023-04-01T04:33:36;9.40;99.90
5334;DHT22;2689;50.954;7.116;2023-04-01T04:36:03;9.40;99.90
5334;DHT22;2689;50.954;7.116;2023-04-01T04:38:32;9.40;99.90
5334;DHT22;2689;50.954;7.116;2023-04-01T04:40:58;9.40;99.90
5334;DHT22;2689;50.954;7.116;2023-04-01T04:43:25;9.40;99.90
5334;DHT22;2689;50.954;7.116;2023-04-01T04:45:52;9.40;99.90
5334;DHT22;2689;50.954;7.116;2023-04-01T04:48:19;9.40;99.90
5334;DHT22;2689;50.954;7.116;2023-04-01T04:50:46;9.40;99.90
5334;DHT22;2689;50.954;7.116;2023-04-01T04:53:14;9.40;99.90
5334;DHT22;2689;50.954;7.116;2023-04-01T04:55:47;9.50;99.90
5334;DHT22;2689;50.954;7.116;2023-04-01T04:58:15;9.40;99.90
5334;DHT22;2689;50.954;7.116;2023-04-01T05:00:42;9.50;99.90
5334;DHT22;2689;50.954;7.116;2023-04-01T05:03:09;9.50;99.90
5334;DHT22;2689;50.954;7.116;2023-04-01T05:05:36;9.50;99.90
5334;DHT22;2689;50.954;7.116;2023-04-01T05:08:03;9.50;99.90
5334;DHT22;2689;50.954;7.116;2023-04-01T05:10:30;9.50;99.90
5334;DHT22;2689;50.954;7.116;2023-04-01T05:12:58;9.50;99.90
5334;DHT22;2689;50.954;7.116;2023-04-01T05:15:25;9.50;99.90
5334;DHT22;2689;50.954;7.116;2023-04-01T05:17:52;9.50;99.90
5334;DHT22;2689;50.954;7.116;2023-04-01T05:20:19;9.50;99.90
5334;DHT22;2689;50.954;7.116;2023-04-01T05:22:46;9.50;99.90
5334;DHT22;2689;50.954;7.116;2023-04-01T05:25:12;9.50;99.90
5334;DHT22;2689;50.954;7.116;2023-04-01T05:27:39;9.50;99.90
5334;DHT22;2689;50.954;7.116;2023-04-01T05:30:08;9.60;99.90
5334;DHT22;2689;50.954;7.116;2023-04-01T05:32:36;9.50;99.90
5334;DHT22;2689;50.954;7.116;2023-04-01T05:35:03;9.50;99.90
5334;DHT22;2689;50.954;7.116;2023-04-01T05:37:30;9.50;99.90
5334;DHT22;2689;50.954;7.116;2023-04-01T05:39:57;9.50;99.90
5334;DHT22;2689;50.954;7.116;2023-04-01T05:42:24;9.50;99.90
5334;DHT22;2689;50.954;7.116;2023-04-01T05:44:51;9.50;99.90
5334;DHT22;2689;50.954;7.116;2023-04-01T05:47:19;9.50;99.90
5334;DHT22;2689;50.954;7.116;2023-04-01T05:49:46;9.50;99.90
5334;DHT22;2689;50.954;7.116;2023-04-01T05:52:13;9.60;99.90
5334;DHT22;2689;50.954;7.116;2023-04-01T05:54:40;9.60;99.90
5334;DHT22;2689;50.954;7.116;2023-04-01T05:57:06;9.60;99.90
5334;DHT22;2689;50.954;7.116;2023-04-01T05:59:33;9.60;99.90
5334;DHT22;2689;50.954;7.116;2023-04-01T06:02:00;9.60;99.90
5334;DHT22;2689;50.954;7.116;2023-04-01T06:04:34;9.60;99.90
5334;DHT22;2689;50.954;7.116;2023-04-01T06:07:10;9.70;99.90
5334;DHT22;2689;50.954;7.116;2023-04-01T06:09:37;9.70;99.90
5334;DHT22;2689;50.954;7.116;2023-04-01T06:15:15;9.70;99.90
5334;DHT22;2689;50.954;7.116;2023-04-01T06:17:57;9.70;99.90
5334;DHT22;2689;50.954;7.116;2023-04-01T06:20:34;9.70;99.90
5334;DHT22;2689;50.954;7.116;2023-04-01T06:23:28;9.70;99.90
5334;DHT22;2689;50.954;7.116;2023-04-01T06:26:19;9.70;99.90
5334;DHT22;2689;50.954;7.116;2023-04-01T06:29:08;9.70;99.90
5334;DHT22;2689;50.954;7.116;2023-04-01T06:32:09;9.70;99.90
5334;DHT22;2689;50.954;7.116;2023-04-01T06:35:11;9.70;99.90
5334;DHT22;2689;50.954;7.116;2023-04-01T06:38:06;9.70;99.90
5334;DHT22;2689;50.954;7.116;2023-04-01T06:41:04;9.80;99.90
5334;DHT22;2689;50.954;7.116;2023-04-01T06:43:41;9.80;99.90
5334;DHT22;2689;50.954;7.116;2023-04-01T06:46:19;9.80;99.90
5334;DHT22;2689;50.954;7.116;2023-04-01T06:49:03;9.80;99.90
5334;DHT22;2689;50.954;7.116;2023-04-01T06:51:39;9.80;99.90
5334;DHT22;2689;50.954;7.116;2023-04-01T06:54:11;9.90;99.90
5334;DHT22;2689;50.954;7.116;2023-04-01T06:56:42;9.90;99.90
5334;DHT22;2689;50.954;7.116;2023-04-01T06:59:15;9.90;99.90
5334;DHT22;2689;50.954;7.116;2023-04-01T07:01:47;9.90;99.90
5334;DHT22;2689;50.954;7.116;2023-04-01T07:04:19;9.90;99.90
5334;DHT22;2689;50.954;7.116;2023-04-01T07:06:49;10.00;99.90
5334;DHT22;2689;50.954;7.116;2023-04-01T07:09:21;10.00;99.90
5334;DHT22;2689;50.954;7.116;2023-04-01T07:11:50;10.00;99.90
5334;DHT22;2689;50.954;7.116;2023-04-01T07:14:23;10.00;99.90
5334;DHT22;2689;50.954;7.116;2023-04-01T07:16:56;10.00;99.90
5334;DHT22;2689;50.954;7.116;2023-04-01T07:19:30;10.00;99.90
5334;DHT22;2689;50.954;7.116;2023-04-01T07:22:03;10.10;99.90
5334;DHT22;2689;50.954;7.116;2023-04-01T07:24:34;10.10;99.90
5334;DHT22;2689;50.954;7.116;2023-04-01T07:27:05;10.10;99.90
5334;DHT22;2689;50.954;7.116;2023-04-01T07:29:35;10.10;99.90
5334;DHT22;2689;50.954;7.116;2023-04-01T07:32:13;10.10;99.90
5334;DHT22;2689;50.954;7.116;2023-04-01T07:34:59;10.10;99.90
5334;DHT22;2689;50.954;7.116;2023-04-01T07:37:34;10.10;99.90
5334;DHT22;2689;50.954;7.116;2023-04-01T07:40:18;10.10;99.90
5334;DHT22;2689;50.954;7.116;2023-04-01T07:42:57;10.10;99.90
5334;DHT22;2689;50.954;7.116;2023-04-01T07:45:31;10.10;99.90
5334;DHT22;2689;50.954;7.116;2023-04-01T07:48:10;10.00;99.90
5334;DHT22;2689;50.954;7.116;2023-04-01T07:50:45;10.00;99.90
5334;DHT22;2689;50.954;7.116;2023-04-01T07:53:16;10.00;99.90
5334;DHT22;2689;50.954;7.116;2023-04-01T07:55:52;10.00;99.90
5334;DHT22;2689;50.954;7.116;2023-04-01T07:58:25;10.00;99.90
5334;DHT22;2689;50.954;7.116;2023-04-01T08:01:01;10.00;99.90
5334;DHT22;2689;50.954;7.116;2023-04-01T08:03:38;10.10;99.90
5334;DHT22;2689;50.954;7.116;2023-04-01T08:06:12;10.10;99.90
5334;DHT22;2689;50.954;7.116;2023-04-01T08:08:50;10.20;99.90
5334;DHT22;2689;50.954;7.116;2023-04-01T08:11:31;10.20;99.90
5334;DHT22;2689;50.954;7.116;2023-04-01T08:14:05;10.20;99.90
5334;DHT22;2689;50.954;7.116;2023-04-01T08:16:42;10.20;99.90
5334;DHT22;2689;50.954;7.116;2023-04-01T08:19:20;10.20;99.90
5334;DHT22;2689;50.954;7.116;2023-04-01T08:21:51;10.20;99.90
5334;DHT22;2689;50.954;7.116;2023-04-01T08:24:23;10.20;99.90
5334;DHT22;2689;50.954;7.116;2023-04-01T08:26:55;10.20;99.90
5334;DHT22;2689;50.954;7.116;2023-04-01T08:29:26;11.00;99.90
5334;DHT22;2689;50.954;7.116;2023-04-01T08:31:59;10.20;99.90
5334;DHT22;2689;50.954;7.116;2023-04-01T08:34:33;10.20;99.90
5334;DHT22;2689;50.954;7.116;2023-04-01T08:37:04;10.20;99.90
5334;DHT22;2689;50.954;7.116;2023-04-01T08:39:34;10.20;99.90
5334;DHT22;2689;50.954;7.116;2023-04-01T08:42:22;10.20;99.90
5334;DHT22;2689;50.954;7.116;2023-04-01T08:45:06;10.20;99.90
5334;DHT22;2689;50.954;7.116;2023-04-01T08:47:47;10.20;99.90
5334;DHT22;2689;50.954;7.116;2023-04-01T08:50:47;10.20;99.90
5334;DHT22;2689;50.954;7.116;2023-04-01T08:53:32;10.30;99.90
5334;DHT22;2689;50.954;7.116;2023-04-01T08:56:09;10.30;99.90
5334;DHT22;2689;50.954;7.116;2023-04-01T08:58:57;10.30;99.90
5334;DHT22;2689;50.954;7.116;2023-04-01T09:01:56;10.30;99.90
5334;DHT22;2689;50.954;7.116;2023-04-01T09:04:37;10.30;99.90
5334;DHT22;2689;50.954;7.116;2023-04-01T09:07:24;10.40;99.90
5334;DHT22;2689;50.954;7.116;2023-04-01T09:10:17;10.40;99.90
5334;DHT22;2689;50.954;7.116;2023-04-01T09:12:59;10.40;99.90
5334;DHT22;2689;50.954;7.116;2023-04-01T09:16:01;10.40;99.90
5334;DHT22;2689;50.954;7.116;2023-04-01T09:22:10;10.40;99.90
5334;DHT22;2689;50.954;7.116;2023-04-01T09:25:00;10.30;99.90
5334;DHT22;2689;50.954;7.116;2023-04-01T09:27:29;10.30;99.90
5334;DHT22;2689;50.954;7.116;2023-04-01T09:30:33;10.30;99.90
5334;DHT22;2689;50.954;7.116;2023-04-01T09:33:23;10.30;99.90
5334;DHT22;2689;50.954;7.116;2023-04-01T09:36:03;10.30;99.90
5334;DHT22;2689;50.954;7.116;2023-04-01T09:38:39;10.30;99.90
5334;DHT22;2689;50.954;7.116;2023-04-01T09:41:15;10.30;99.90
5334;DHT22;2689;50.954;7.116;2023-04-01T09:44:00;10.40;99.90
5334;DHT22;2689;50.954;7.116;2023-04-01T09:46:43;10.40;99.90
5334;DHT22;2689;50.954;7.116;2023-04-01T09:49:38;10.40;99.90
5334;DHT22;2689;50.954;7.116;2023-04-01T09:52:18;10.40;99.90
5334;DHT22;2689;50.954;7.116;2023-04-01T09:55:00;10.40;99.90
5334;DHT22;2689;50.954;7.116;2023-04-01T10:00:50;10.50;99.90
5334;DHT22;2689;50.954;7.116;2023-04-01T10:19:20;10.30;99.90
5334;DHT22;2689;50.954;7.116;2023-04-01T10:22:15;10.30;99.90
5334;DHT22;2689;50.954;7.116;2023-04-01T10:25:02;10.40;99.90
5334;DHT22;2689;50.954;7.116;2023-04-01T10:31:09;10.50;99.90
5334;DHT22;2689;50.954;7.116;2023-04-01T10:36:53;10.50;99.90
5334;DHT22;2689;50.954;7.116;2023-04-01T10:39:51;10.50;99.90
5334;DHT22;2689;50.954;7.116;2023-04-01T10:42:49;10.50;99.90
5334;DHT22;2689;50.954;7.116;2023-04-01T10:46:16;10.50;99.90
5334;DHT22;2689;50.954;7.116;2023-04-01T10:55:19;10.70;99.90
5334;DHT22;2689;50.954;7.116;2023-04-01T10:58:20;10.70;99.90
5334;DHT22;2689;50.954;7.116;2023-04-01T11:01:14;10.70;99.90
5334;DHT22;2689;50.954;7.116;2023-04-01T11:04:37;10.70;99.90
5334;DHT22;2689;50.954;7.116;2023-04-01T11:07:29;10.70;99.90
5334;DHT22;2689;50.954;7.116;2023-04-01T11:22:45;10.80;99.90
5334;DHT22;2689;50.954;7.116;2023-04-01T11:28:27;10.90;99.90
5334;DHT22;2689;50.954;7.116;2023-04-01T11:34:27;10.80;99.90
5334;DHT22;2689;50.954;7.116;2023-04-01T11:37:04;10.80;99.90
5334;DHT22;2689;50.954;7.116;2023-04-01T11:39:38;10.80;99.90
5334;DHT22;2689;50.954;7.116;2023-04-01T11:42:17;10.90;99.90
5334;DHT22;2689;50.954;7.116;2023-04-01T11:44:53;10.80;99.90
5334;DHT22;2689;50.954;7.116;2023-04-01T11:47:40;10.90;99.90
5334;DHT22;2689;50.954;7.116;2023-04-01T11:50:20;10.90;99.90
5334;DHT22;2689;50.954;7.116;2023-04-01T11:53:12;10.90;99.90
5334;DHT22;2689;50.954;7.116;2023-04-01T11:55:54;10.90;99.90
5334;DHT22;2689;50.954;7.116;2023-04-01T11:58:47;10.90;99.90
5334;DHT22;2689;50.954;7.116;2023-04-01T12:01:24;11.00;99.90
5334;DHT22;2689;50.954;7.116;2023-04-01T12:07:24;11.20;99.90
5334;DHT22;2689;50.954;7.116;2023-04-01T12:10:02;11.20;99.90
5334;DHT22;2689;50.954;7.116;2023-04-01T12:12:37;11.20;99.90
5334;DHT22;2689;50.954;7.116;2023-04-01T12:15:19;11.20;99.90
5334;DHT22;2689;50.954;7.116;2023-04-01T12:17:52;11.30;99.90
5334;DHT22;2689;50.954;7.116;2023-04-01T12:20:40;11.40;99.90
5334;DHT22;2689;50.954;7.116;2023-04-01T12:23:18;11.50;99.90
5334;DHT22;2689;50.954;7.116;2023-04-01T12:26:10;11.60;99.90
5334;DHT22;2689;50.954;7.116;2023-04-01T12:28:46;11.70;99.90
5334;DHT22;2689;50.954;7.116;2023-04-01T12:31:27;11.70;99.90
5334;DHT22;2689;50.954;7.116;2023-04-01T12:34:26;11.80;99.90
5334;DHT22;2689;50.954;7.116;2023-04-01T12:37:02;12.00;99.90
5334;DHT22;2689;50.954;7.116;2023-04-01T12:39:44;12.00;99.90
5334;DHT22;2689;50.954;7.116;2023-04-01T12:45:35;12.00;99.90
5334;DHT22;2689;50.954;7.116;2023-04-01T12:48:32;11.90;99.90
5334;DHT22;2689;50.954;7.116;2023-04-01T12:51:41;12.00;99.90
5334;DHT22;2689;50.954;7.116;2023-04-01T12:57:29;12.00;99.90
5334;DHT22;2689;50.954;7.116;2023-04-01T13:00:11;11.90;99.90
5334;DHT22;2689;50.954;7.116;2023-04-01T13:02:52;11.90;99.90
5334;DHT22;2689;50.954;7.116;2023-04-01T13:05:37;11.90;99.90
5334;DHT22;2689;50.954;7.116;2023-04-01T13:08:17;11.90;99.90
5334;DHT22;2689;50.954;7.116;2023-04-01T13:11:00;11.90;99.90
5334;DHT22;2689;50.954;7.116;2023-04-01T13:14:02;12.00;99.90
5334;DHT22;2689;50.954;7.116;2023-04-01T13:16:37;12.00;99.90
5334;DHT22;2689;50.954;7.116;2023-04-01T13:19:08;12.00;99.90
5334;DHT22;2689;50.954;7.116;2023-04-01T13:21:47;12.00;99.90
5334;DHT22;2689;50.954;7.116;2023-04-01T13:24:26;11.90;99.90
5334;DHT22;2689;50.954;7.116;2023-04-01T13:27:01;12.00;99.90
5334;DHT22;2689;50.954;7.116;2023-04-01T13:29:35;12.10;99.90
5334;DHT22;2689;50.954;7.116;2023-04-01T13:32:16;12.20;99.90
5334;DHT22;2689;50.954;7.116;2023-04-01T13:34:55;12.20;99.90
5334;DHT22;2689;50.954;7.116;2023-04-01T13:37:40;12.20;99.90
5334;DHT22;2689;50.954;7.116;2023-04-01T13:40:24;12.20;99.90
5334;DHT22;2689;50.954;7.116;2023-04-01T13:42:58;12.10;99.90
5334;DHT22;2689;50.954;7.116;2023-04-01T13:45:34;12.10;99.90
5334;DHT22;2689;50.954;7.116;2023-04-01T13:48:23;12.10;99.90
5334;DHT22;2689;50.954;7.116;2023-04-01T13:50:59;12.10;99.90
5334;DHT22;2689;50.954;7.116;2023-04-01T13:56:45;12.10;99.90
5334;DHT22;2689;50.954;7.116;2023-04-01T13:59:40;12.10;99.90
5334;DHT22;2689;50.954;7.116;2023-04-01T14:02:29;12.00;99.90
5334;DHT22;2689;50.954;7.116;2023-04-01T14:05:13;11.90;99.90
5334;DHT22;2689;50.954;7.116;2023-04-01T14:07:50;11.80;99.90
5334;DHT22;2689;50.954;7.116;2023-04-01T14:10:28;11.70;99.90
5334;DHT22;2689;50.954;7.116;2023-04-01T14:13:01;11.60;99.90
5334;DHT22;2689;50.954;7.116;2023-04-01T14:15:42;11.50;99.90
5334;DHT22;2689;50.954;7.116;2023-04-01T14:18:37;11.40;99.90
5334;DHT22;2689;50.954;7.116;2023-04-01T14:21:13;11.40;99.90
5334;DHT22;2689;50.954;7.116;2023-04-01T14:23:55;11.30;99.90
5334;DHT22;2689;50.954;7.116;2023-04-01T14:26:41;11.40;99.90
5334;DHT22;2689;50.954;7.116;2023-04-01T14:29:21;11.40;99.90
5334;DHT22;2689;50.954;7.116;2023-04-01T14:31:58;11.40;99.90
5334;DHT22;2689;50.954;7.116;2023-04-01T14:34:41;11.40;99.90
5334;DHT22;2689;50.954;7.116;2023-04-01T14:37:19;11.40;99.90
5334;DHT22;2689;50.954;7.116;2023-04-01T14:40:20;11.40;99.90
5334;DHT22;2689;50.954;7.116;2023-04-01T14:43:12;11.50;99.90
5334;DHT22;2689;50.954;7.116;2023-04-01T14:46:00;11.40;99.90
5334;DHT22;2689;50.954;7.116;2023-04-01T14:48:34;11.40;99.90
5334;DHT22;2689;50.954;7.116;2023-04-01T14:51:10;11.40;99.90
5334;DHT22;2689;50.954;7.116;2023-04-01T14:53:44;11.50;99.90
5334;DHT22;2689;50.954;7.116;2023-04-01T14:56:35;11.40;99.90
5334;DHT22;2689;50.954;7.116;2023-04-01T14:59:09;11.40;99.90
5334;DHT22;2689;50.954;7.116;2023-04-01T15:01:43;11.40;99.90
5334;DHT22;2689;50.954;7.116;2023-04-01T15:04:28;11.30;99.90
5334;DHT22;2689;50.954;7.116;2023-04-01T15:07:15;11.40;99.90
5334;DHT22;2689;50.954;7.116;2023-04-01T15:09:52;11.30;99.90
5334;DHT22;2689;50.954;7.116;2023-04-01T15:12:26;11.40;99.90
5334;DHT22;2689;50.954;7.116;2023-04-01T15:15:09;11.30;99.90
5334;DHT22;2689;50.954;7.116;2023-04-01T15:17:58;11.40;99.90
5334;DHT22;2689;50.954;7.116;2023-04-01T15:20:55;11.40;99.90
5334;DHT22;2689;50.954;7.116;2023-04-01T15:23:35;11.40;99.90
5334;DHT22;2689;50.954;7.116;2023-04-01T15:26:19;11.40;99.90
5334;DHT22;2689;50.954;7.116;2023-04-01T15:28:57;11.40;99.90
5334;DHT22;2689;50.954;7.116;2023-04-01T15:31:31;11.40;99.90
5334;DHT22;2689;50.954;7.116;2023-04-01T15:36:52;11.50;99.90
5334;DHT22;2689;50.954;7.116;2023-04-01T15:39:26;11.50;99.90
5334;DHT22;2689;50.954;7.116;2023-04-01T15:42:11;11.40;99.90
5334;DHT22;2689;50.954;7.116;2023-04-01T15:44:50;11.40;99.90
5334;DHT22;2689;50.954;7.116;2023-04-01T15:47:32;11.30;99.90
5334;DHT22;2689;50.954;7.116;2023-04-01T15:53:08;11.40;99.90
5334;DHT22;2689;50.954;7.116;2023-04-01T15:55:39;11.40;99.90
5334;DHT22;2689;50.954;7.116;2023-04-01T15:58:40;11.40;99.90
5334;DHT22;2689;50.954;7.116;2023-04-01T16:01:18;11.40;99.90
5334;DHT22;2689;50.954;7.116;2023-04-01T16:03:52;11.40;99.90
5334;DHT22;2689;50.954;7.116;2023-04-01T16:06:33;11.50;99.90
5334;DHT22;2689;50.954;7.116;2023-04-01T16:12:00;11.50;99.90
5334;DHT22;2689;50.954;7.116;2023-04-01T16:14:37;11.50;99.90
5334;DHT22;2689;50.954;7.116;2023-04-01T16:17:25;11.50;99.90
5334;DHT22;2689;50.954;7.116;2023-04-01T16:19:56;11.50;99.90
5334;DHT22;2689;50.954;7.116;2023-04-01T16:22:29;11.40;99.90
5334;DHT22;2689;50.954;7.116;2023-04-01T16:25:03;11.50;99.90
5334;DHT22;2689;50.954;7.116;2023-04-01T16:27:40;11.50;99.90
5334;DHT22;2689;50.954;7.116;2023-04-01T16:30:26;11.50;99.90
5334;DHT22;2689;50.954;7.116;2023-04-01T16:33:02;11.50;99.90
5334;DHT22;2689;50.954;7.116;2023-04-01T16:35:38;11.40;99.90
5334;DHT22;2689;50.954;7.116;2023-04-01T16:38:13;11.50;99.90
5334;DHT22;2689;50.954;7.116;2023-04-01T16:40:47;11.50;99.90
5334;DHT22;2689;50.954;7.116;2023-04-01T16:43:25;11.40;99.90
5334;DHT22;2689;50.954;7.116;2023-04-01T16:46:02;11.40;99.90
5334;DHT22;2689;50.954;7.116;2023-04-01T16:48:49;11.40;99.90
5334;DHT22;2689;50.954;7.116;2023-04-01T16:51:18;11.40;99.90
5334;DHT22;2689;50.954;7.116;2023-04-01T16:53:49;11.50;99.90
5334;DHT22;2689;50.954;7.116;2023-04-01T16:56:21;11.40;99.90
5334;DHT22;2689;50.954;7.116;2023-04-01T16:59:02;11.50;99.90
5334;DHT22;2689;50.954;7.116;2023-04-01T17:01:47;11.50;99.90
5334;DHT22;2689;50.954;7.116;2023-04-01T17:04:21;11.40;99.90
5334;DHT22;2689;50.954;7.116;2023-04-01T17:06:53;11.30;99.90
5334;DHT22;2689;50.954;7.116;2023-04-01T17:09:43;11.20;99.90
5334;DHT22;2689;50.954;7.116;2023-04-01T17:12:18;11.10;99.90
5334;DHT22;2689;50.954;7.116;2023-04-01T17:14:56;11.00;99.90
5334;DHT22;2689;50.954;7.116;2023-04-01T17:17:34;11.00;99.90
5334;DHT22;2689;50.954;7.116;2023-04-01T17:20:13;11.00;99.90
5334;DHT22;2689;50.954;7.116;2023-04-01T17:22:46;11.00;99.90
5334;DHT22;2689;50.954;7.116;2023-04-01T17:25:38;10.90;99.90
5334;DHT22;2689;50.954;7.116;2023-04-01T17:28:19;10.90;99.90
5334;DHT22;2689;50.954;7.116;2023-04-01T17:30:59;10.90;99.90
5334;DHT22;2689;50.954;7.116;2023-04-01T17:33:44;10.90;99.90
5334;DHT22;2689;50.954;7.116;2023-04-01T17:36:20;10.90;99.90
5334;DHT22;2689;50.954;7.116;2023-04-01T17:39:01;10.90;99.90
5334;DHT22;2689;50.954;7.116;2023-04-01T17:41:41;10.80;99.90
5334;DHT22;2689;50.954;7.116;2023-04-01T17:44:21;10.80;99.90
5334;DHT22;2689;50.954;7.116;2023-04-01T17:47:14;10.80;99.90
5334;DHT22;2689;50.954;7.116;2023-04-01T17:49:51;10.80;99.90
5334;DHT22;2689;50.954;7.116;2023-04-01T17:52:27;10.80;99.90
5334;DHT22;2689;50.954;7.116;2023-04-01T17:54:59;10.70;99.90
5334;DHT22;2689;50.954;7.116;2023-04-01T17:57:39;10.70;99.90
5334;DHT22;2689;50.954;7.116;2023-04-01T18:00:21;10.70;99.90
5334;DHT22;2689;50.954;7.116;2023-04-01T18:02:58;10.70;99.90
5334;DHT22;2689;50.954;7.116;2023-04-01T18:05:36;10.70;99.90
5334;DHT22;2689;50.954;7.116;2023-04-01T18:08:15;10.60;99.90
5334;DHT22;2689;50.954;7.116;2023-04-01T18:10:55;10.60;99.90
5334;DHT22;2689;50.954;7.116;2023-04-01T18:13:54;10.60;99.90
5334;DHT22;2689;50.954;7.116;2023-04-01T18:16:40;10.60;99.90
5334;DHT22;2689;50.954;7.116;2023-04-01T18:19:17;10.50;99.90
5334;DHT22;2689;50.954;7.116;2023-04-01T18:24:27;10.50;99.90
5334;DHT22;2689;50.954;7.116;2023-04-01T18:27:03;10.50;99.90
5334;DHT22;2689;50.954;7.116;2023-04-01T18:29:41;10.50;99.90